createdAt,value
2018-05-07T00:01:42.168Z,2.43
2018-05-07T00:04:45.430Z,2.53
2018-05-07T00:07:48.710Z,2.33
2018-05-07T00:10:51.920Z,2.40
2018-05-07T00:13:55.179Z,2.40
2018-05-07T00:16:58.379Z,2.50
2018-05-07T00:20:01.649Z,2.77
2018-05-07T00:23:04.838Z,2.30
2018-05-07T00:26:08.122Z,2.70
2018-05-07T00:29:11.390Z,2.43
2018-05-07T00:32:14.579Z,2.70
2018-05-07T00:35:17.915Z,2.20
2018-05-07T00:38:21.107Z,2.67
2018-05-07T00:41:24.379Z,2.47
2018-05-07T00:44:27.616Z,2.63
2018-05-07T00:47:30.890Z,2.27
2018-05-07T00:50:34.153Z,2.43
2018-05-07T00:53:37.341Z,2.40
2018-05-07T00:56:40.595Z,2.83
2018-05-07T00:59:43.791Z,2.30
2018-05-07T01:02:47.053Z,3.00
2018-05-07T01:05:50.349Z,2.50
2018-05-07T01:08:53.566Z,2.40
2018-05-07T01:11:56.812Z,2.63
2018-05-07T01:15:00.030Z,2.33
2018-05-07T01:18:03.306Z,2.60
2018-05-07T01:21:06.512Z,2.20
2018-05-07T01:24:09.774Z,2.30
2018-05-07T01:27:13.059Z,2.20
2018-05-07T01:30:16.299Z,2.47
2018-05-07T01:33:19.566Z,2.47
2018-05-07T01:36:22.763Z,2.33
2018-05-07T01:39:26.021Z,2.53
2018-05-07T01:42:29.378Z,2.70
2018-05-07T01:45:32.569Z,2.40
2018-05-07T01:48:35.840Z,2.37
2018-05-07T01:51:39.036Z,2.77
2018-05-07T01:54:42.300Z,2.50
2018-05-07T01:57:45.527Z,2.47
2018-05-07T02:00:48.794Z,2.37
2018-05-07T02:03:52.048Z,2.20
2018-05-07T02:06:55.236Z,2.60
2018-05-07T02:09:58.484Z,2.60
2018-05-07T02:13:01.677Z,2.37
2018-05-07T02:16:04.979Z,2.40
2018-05-07T02:19:08.251Z,2.10
2018-05-07T02:22:11.438Z,2.63
2018-05-07T02:25:14.710Z,2.73
2018-05-07T02:28:17.914Z,2.60
2018-05-07T02:31:21.222Z,2.20
2018-05-07T02:34:24.467Z,2.30
2018-05-07T02:37:27.739Z,2.43
2018-05-07T02:40:30.988Z,2.40
2018-05-07T02:43:34.191Z,2.30
2018-05-07T02:46:37.483Z,2.40
2018-05-07T02:49:40.670Z,2.47
2018-05-07T02:52:43.946Z,2.10
2018-05-07T02:55:47.217Z,2.30
2018-05-07T02:58:50.475Z,2.30
2018-05-07T03:01:53.736Z,2.40
2018-05-07T03:04:56.931Z,2.27
2018-05-07T03:08:00.192Z,2.13
2018-05-07T03:11:03.398Z,2.60
2018-05-07T03:14:06.652Z,2.60
2018-05-07T03:17:09.932Z,2.20
2018-05-07T03:20:13.137Z,2.40
2018-05-07T03:23:16.392Z,2.47
2018-05-07T03:26:19.631Z,2.57
2018-05-07T03:29:22.912Z,2.73
2018-05-07T03:32:26.184Z,2.57
2018-05-07T03:35:29.385Z,3.10
2018-05-07T03:38:32.674Z,3.00
2018-05-07T03:41:35.879Z,2.70
2018-05-07T03:44:39.168Z,2.60
2018-05-07T03:47:42.422Z,2.70
2018-05-07T03:50:45.692Z,2.53
2018-05-07T03:53:48.970Z,2.53
2018-05-07T03:56:52.166Z,2.77
2018-05-07T03:59:55.720Z,2.87
2018-05-07T04:02:58.900Z,2.50
2018-05-07T04:06:02.154Z,2.60
2018-05-07T04:09:05.483Z,2.80
2018-05-07T04:12:09.664Z,2.43
2018-05-07T04:15:12.926Z,2.80
2018-05-07T04:22:02.713Z,2.60
2018-05-07T04:25:05.968Z,2.70
2018-05-07T04:28:09.168Z,2.60
2018-05-07T04:31:12.457Z,3.17
2018-05-07T04:34:15.667Z,2.90
2018-05-07T04:37:18.947Z,2.70
2018-05-07T04:40:22.219Z,2.80
2018-05-07T04:43:25.410Z,2.47
2018-05-07T04:46:28.668Z,2.80
2018-05-07T04:49:31.861Z,2.97
2018-05-07T04:52:35.115Z,2.50
2018-05-07T04:55:38.408Z,2.57
2018-05-07T04:58:41.641Z,3.00
2018-05-07T05:01:44.947Z,2.97
2018-05-07T05:04:48.139Z,2.83
2018-05-07T05:07:51.406Z,2.60
2018-05-07T05:10:54.598Z,3.63
2018-05-07T05:13:57.852Z,3.70
2018-05-07T05:17:01.110Z,3.20
2018-05-07T05:20:04.351Z,2.73
2018-05-07T05:23:07.636Z,2.97
2018-05-07T05:26:10.823Z,2.60
2018-05-07T05:29:14.081Z,2.43
2018-05-07T05:32:17.291Z,3.00
2018-05-07T05:35:20.546Z,2.90
2018-05-07T05:38:23.835Z,2.90
2018-05-07T05:41:27.017Z,2.87
2018-05-07T05:44:30.271Z,3.20
2018-05-07T05:47:33.481Z,3.17
2018-05-07T05:50:36.757Z,2.90
2018-05-07T05:53:39.967Z,3.07
2018-05-07T05:56:43.216Z,3.10
2018-05-07T05:59:46.505Z,3.07
2018-05-07T06:02:49.720Z,3.07
2018-05-07T06:05:52.969Z,3.40
2018-05-07T06:08:56.187Z,2.70
2018-05-07T06:11:59.446Z,3.07
2018-05-07T06:15:02.895Z,3.00
2018-05-07T06:18:05.989Z,3.30
2018-05-07T06:21:09.278Z,3.33
2018-05-07T06:24:12.470Z,3.47
2018-05-07T06:27:15.747Z,2.87
2018-05-07T06:30:19.026Z,3.57
2018-05-07T06:33:22.224Z,3.67
2018-05-07T06:36:25.487Z,3.00
2018-05-07T06:39:28.704Z,3.20
2018-05-07T06:42:31.967Z,3.27
2018-05-07T06:45:35.319Z,3.50
2018-05-07T06:48:38.549Z,3.17
2018-05-07T06:51:41.848Z,3.70
2018-05-07T06:54:45.068Z,4.03
2018-05-07T06:57:48.342Z,3.57
2018-05-07T07:00:51.603Z,3.93
2018-05-07T07:03:54.867Z,3.17
2018-05-07T07:06:58.134Z,3.43
2018-05-07T07:10:01.335Z,3.10
2018-05-07T07:13:04.645Z,3.43
2018-05-07T07:16:07.865Z,3.30
2018-05-07T07:19:11.125Z,2.90
2018-05-07T07:22:14.481Z,2.93
2018-05-07T07:25:17.702Z,3.40
2018-05-07T07:28:20.969Z,2.53
2018-05-07T07:31:24.166Z,2.87
2018-05-07T07:34:27.443Z,3.03
2018-05-07T07:37:30.744Z,3.07
2018-05-07T07:40:33.956Z,2.80
2018-05-07T07:43:40.913Z,2.60
2018-05-07T07:46:44.119Z,2.30
2018-05-07T07:49:47.403Z,2.20
2018-05-07T07:52:50.622Z,2.27
2018-05-07T07:55:53.897Z,2.30
2018-05-07T07:58:57.193Z,2.30
2018-05-07T08:02:00.427Z,2.40
2018-05-07T08:05:03.708Z,2.10
2018-05-07T08:08:06.895Z,2.23
2018-05-07T08:11:10.225Z,2.30
2018-05-07T08:14:13.443Z,2.20
2018-05-07T08:17:16.715Z,2.13
2018-05-07T08:20:19.977Z,2.30
2018-05-07T08:23:23.178Z,2.10
2018-05-07T08:26:26.472Z,1.80
2018-05-07T08:29:29.668Z,1.77
2018-05-07T08:32:32.938Z,2.10
2018-05-07T08:35:36.252Z,1.77
2018-05-07T08:38:39.460Z,2.00
2018-05-07T08:41:42.737Z,2.00
2018-05-07T08:44:45.937Z,1.83
2018-05-07T08:47:49.196Z,1.90
2018-05-07T08:50:52.443Z,2.17
2018-05-07T08:53:55.748Z,1.90
2018-05-07T08:56:59.065Z,1.67
2018-05-07T09:00:02.282Z,1.80
2018-05-07T09:03:05.558Z,1.90
2018-05-07T09:06:08.755Z,1.60
2018-05-07T09:09:14.058Z,1.90
2018-05-07T09:12:17.307Z,1.83
2018-05-07T09:15:20.565Z,1.90
2018-05-07T09:18:23.853Z,1.90
2018-05-07T09:21:27.051Z,1.50
2018-05-07T09:24:30.334Z,1.70
2018-05-07T09:27:33.524Z,1.60
2018-05-07T09:30:36.786Z,1.67
2018-05-07T09:33:40.049Z,1.67
2018-05-07T09:36:43.249Z,1.87
2018-05-07T09:39:46.534Z,1.53
2018-05-07T09:42:49.737Z,1.70
2018-05-07T09:45:53.002Z,1.87
2018-05-07T09:48:56.310Z,1.60
2018-05-07T09:51:59.514Z,1.60
2018-05-07T09:55:02.782Z,1.63
2018-05-07T09:58:06.055Z,1.60
2018-05-07T10:01:09.324Z,1.50
2018-05-07T10:04:12.526Z,2.23
2018-05-07T10:07:15.819Z,1.50
2018-05-07T10:10:19.111Z,1.80
2018-05-07T10:13:22.322Z,1.40
2018-05-07T10:16:25.595Z,1.70
2018-05-07T10:19:28.794Z,1.90
2018-05-07T10:22:32.053Z,1.60
2018-05-07T10:25:35.320Z,1.40
2018-05-07T10:28:38.538Z,1.47
2018-05-07T10:31:41.824Z,1.30
2018-05-07T10:34:45.047Z,1.93
2018-05-07T10:37:48.318Z,1.40
2018-05-07T10:40:51.642Z,1.40
2018-05-07T10:43:56.001Z,1.58
2018-05-07T10:46:59.267Z,1.58
2018-05-07T10:50:02.485Z,1.90
2018-05-07T10:53:05.786Z,1.70
2018-05-07T10:56:09.098Z,1.83
2018-05-07T10:59:12.345Z,1.73
2018-05-07T11:02:15.612Z,1.62
2018-05-07T11:05:18.808Z,1.62
2018-05-07T11:08:22.080Z,1.75
2018-05-07T11:11:25.298Z,1.45
2018-05-07T11:14:28.566Z,1.90
2018-05-07T11:17:31.770Z,1.50
2018-05-07T11:20:35.044Z,1.75
2018-05-07T11:23:38.331Z,1.62
2018-05-07T11:26:41.527Z,1.55
2018-05-07T11:29:44.799Z,1.50
2018-05-07T11:32:47.988Z,1.40
2018-05-07T11:35:51.263Z,1.40
2018-05-07T11:38:54.460Z,1.70
2018-05-07T11:41:57.741Z,1.50
2018-05-07T11:45:01.003Z,1.30
2018-05-07T11:48:04.208Z,1.33
2018-05-07T11:51:07.465Z,4.12
2018-05-07T11:54:10.678Z,1.67
2018-05-07T11:57:13.996Z,1.45
2018-05-07T12:00:17.343Z,1.62
2018-05-07T12:03:20.543Z,1.40
2018-05-07T12:06:23.802Z,1.50
2018-05-07T12:09:27.007Z,1.65
2018-05-07T12:12:30.313Z,1.40
2018-05-07T12:15:33.514Z,1.42
2018-05-07T12:18:36.781Z,1.35
2018-05-07T12:21:40.084Z,1.60
2018-05-07T12:24:43.298Z,1.50
2018-05-07T12:27:46.565Z,1.52
2018-05-07T12:30:50.693Z,1.40
2018-05-07T12:33:55.074Z,1.50
2018-05-07T12:36:58.288Z,1.50
2018-05-07T12:40:01.551Z,1.50
2018-05-07T12:43:04.871Z,1.58
2018-05-07T12:46:08.447Z,1.50
2018-05-07T12:49:11.719Z,1.73
2018-05-07T12:52:14.946Z,1.40
2018-05-07T12:55:18.222Z,1.90
2018-05-07T12:58:21.499Z,2.50
2018-05-07T13:01:24.699Z,1.48
2018-05-07T13:04:27.980Z,1.60
2018-05-07T13:07:31.185Z,1.55
2018-05-07T13:10:34.461Z,1.50
2018-05-07T13:13:37.755Z,1.70
2018-05-07T13:16:40.958Z,1.65
2018-05-07T13:19:44.239Z,1.65
2018-05-07T13:22:47.677Z,1.30
2018-05-07T13:25:50.963Z,1.50
2018-05-07T13:28:54.178Z,1.37
2018-05-07T13:31:57.480Z,1.80
2018-05-07T13:35:18.636Z,1.62
2018-05-07T13:38:38.712Z,2.00
2018-05-07T13:42:01.031Z,2.60
2018-05-07T13:48:38.382Z,2.42
2018-05-07T13:55:30.624Z,1.85
2018-05-07T13:58:35.099Z,1.58
2018-05-07T14:01:38.405Z,1.50
2018-05-07T14:04:41.623Z,1.70
2018-05-07T14:07:57.155Z,1.70
2018-05-07T14:11:00.618Z,1.90
2018-05-07T14:14:03.880Z,1.60
2018-05-07T14:17:07.196Z,1.75
2018-05-07T14:20:10.449Z,1.50
2018-05-07T14:23:13.761Z,1.87
2018-05-07T14:26:29.440Z,1.95
2018-05-07T14:29:32.702Z,1.87
2018-05-07T14:32:35.968Z,1.80
2018-05-07T14:35:39.178Z,1.40
2018-05-07T14:38:42.493Z,1.70
2018-05-07T14:41:45.728Z,1.80
2018-05-07T14:44:49.020Z,1.80
2018-05-07T14:47:52.348Z,1.98
2018-05-07T14:50:55.559Z,1.92
2018-05-07T14:53:58.860Z,1.60
2018-05-07T14:57:02.071Z,2.00
2018-05-07T15:00:05.391Z,1.80
2018-05-07T15:03:08.596Z,2.10
2018-05-07T15:06:11.872Z,1.40
2018-05-07T15:09:15.130Z,1.80
2018-05-07T15:12:18.335Z,1.87
2018-05-07T15:15:21.609Z,1.90
2018-05-07T15:18:24.821Z,1.73
2018-05-07T15:21:28.110Z,1.50
2018-05-07T15:24:43.202Z,1.90
2018-05-07T15:27:46.437Z,2.25
2018-05-07T15:30:49.712Z,1.85
2018-05-07T15:33:52.914Z,2.17
2018-05-07T15:36:56.177Z,2.10
2018-05-07T15:39:59.382Z,2.00
2018-05-07T15:43:02.648Z,2.22
2018-05-07T15:46:05.986Z,1.90
2018-05-07T15:49:09.196Z,2.30
2018-05-07T15:52:12.465Z,2.17
2018-05-07T15:55:15.690Z,1.90
2018-05-07T15:58:19.002Z,2.10
2018-05-07T16:01:22.214Z,2.20
2018-05-07T16:04:25.602Z,2.10
2018-05-07T16:07:28.870Z,2.40
2018-05-07T16:10:32.098Z,2.42
2018-05-07T16:13:35.363Z,2.60
2018-05-07T16:16:38.627Z,2.20
2018-05-07T16:19:41.906Z,1.90
2018-05-07T16:22:45.174Z,2.42
2018-05-07T16:25:48.395Z,2.03
2018-05-07T16:28:51.739Z,2.75
2018-05-07T16:31:55.854Z,2.17
2018-05-07T16:34:59.126Z,7.18
2018-05-07T16:38:02.380Z,3.08
2018-05-07T16:41:05.765Z,2.33
2018-05-07T16:44:09.033Z,2.40
2018-05-07T16:47:12.239Z,2.00
2018-05-07T16:50:15.506Z,2.10
2018-05-07T16:53:18.716Z,2.00
2018-05-07T16:56:22.005Z,2.10
2018-05-07T16:59:25.421Z,2.37
2018-05-07T17:02:28.539Z,2.20
2018-05-07T17:05:31.815Z,1.98
2018-05-07T17:08:35.031Z,2.60
2018-05-07T17:11:38.923Z,2.35
2018-05-07T17:14:42.191Z,2.20
2018-05-07T17:17:45.408Z,2.92
2018-05-07T17:20:48.682Z,2.25
2018-05-07T17:23:51.899Z,2.30
2018-05-07T17:26:55.184Z,2.40
2018-05-07T17:29:58.415Z,2.65
2018-05-07T17:33:01.691Z,1.85
2018-05-07T17:36:05.016Z,2.03
2018-05-07T17:39:08.234Z,2.53
2018-05-07T17:42:11.504Z,2.10
2018-05-07T17:45:26.385Z,2.00
2018-05-07T17:48:41.289Z,2.08
2018-05-07T17:51:56.146Z,1.77
2018-05-07T17:55:00.203Z,1.92
2018-05-07T17:58:03.471Z,2.10
2018-05-07T18:01:06.681Z,1.90
2018-05-07T18:04:09.948Z,2.08
2018-05-07T18:07:13.140Z,1.95
2018-05-07T18:10:16.406Z,2.35
2018-05-07T18:13:19.683Z,1.85
2018-05-07T18:16:22.884Z,2.08
2018-05-07T18:19:26.161Z,2.12
2018-05-07T18:22:29.370Z,2.33
2018-05-07T18:25:32.641Z,1.93
2018-05-07T18:28:35.930Z,1.80
2018-05-07T18:31:39.131Z,1.90
2018-05-07T18:34:42.398Z,2.00
2018-05-07T18:37:45.621Z,2.10
2018-05-07T18:40:48.871Z,1.83
2018-05-07T18:43:52.150Z,2.13
2018-05-07T18:46:55.343Z,2.10
2018-05-07T18:49:58.632Z,1.90
2018-05-07T18:53:01.846Z,2.33
2018-05-07T18:56:05.206Z,1.87
2018-05-07T18:59:08.497Z,2.17
2018-05-07T19:02:11.810Z,2.70
2018-05-07T19:05:15.078Z,2.00
2018-05-07T19:08:18.292Z,2.07
2018-05-07T19:11:21.555Z,2.23
2018-05-07T19:14:24.928Z,1.83
2018-05-07T19:17:28.242Z,2.13
2018-05-07T19:20:31.576Z,2.00
2018-05-07T19:23:34.803Z,2.67
2018-05-07T19:26:38.101Z,2.30
2018-05-07T19:29:41.307Z,2.30
2018-05-07T19:32:44.582Z,2.30
2018-05-07T19:35:47.814Z,2.40
2018-05-07T19:38:51.086Z,2.30
2018-05-07T19:41:54.353Z,2.10
2018-05-07T19:44:57.559Z,2.50
2018-05-07T19:48:00.834Z,2.30
2018-05-07T19:51:04.053Z,2.20
2018-05-07T19:54:07.346Z,2.30
2018-05-07T19:57:10.612Z,2.43
2018-05-07T20:00:13.828Z,2.30
2018-05-07T20:03:17.108Z,2.40
2018-05-07T20:06:20.305Z,2.50
2018-05-07T20:09:23.580Z,2.27
2018-05-07T20:12:26.874Z,2.40
2018-05-07T20:15:30.124Z,2.37
2018-05-07T20:18:33.466Z,2.27
2018-05-07T20:21:36.666Z,2.20
2018-05-07T20:24:39.919Z,2.40
2018-05-07T20:27:43.129Z,2.30
2018-05-07T20:30:46.428Z,2.10
2018-05-07T20:33:49.686Z,2.17
2018-05-07T20:36:52.966Z,2.30
2018-05-07T20:39:56.237Z,2.53
2018-05-07T20:42:59.487Z,2.50
2018-05-07T20:46:02.789Z,2.50
2018-05-07T20:49:06.008Z,2.40
2018-05-07T20:52:09.275Z,2.40
2018-05-07T20:55:12.495Z,2.50
2018-05-07T20:58:15.841Z,2.30
2018-05-07T21:01:19.129Z,2.43
2018-05-07T21:04:22.383Z,2.37
2018-05-07T21:07:25.654Z,2.80
2018-05-07T21:10:28.869Z,2.77
2018-05-07T21:13:32.126Z,3.00
2018-05-07T21:16:35.402Z,3.17
2018-05-07T21:19:38.608Z,3.47
2018-05-07T21:22:41.919Z,3.30
2018-05-07T21:25:45.146Z,3.10
2018-05-07T21:28:48.418Z,3.30
2018-05-07T21:31:51.627Z,3.10
2018-05-07T21:34:54.912Z,2.80
2018-05-07T21:37:58.223Z,3.40
2018-05-07T21:41:01.416Z,3.00
2018-05-07T21:44:04.758Z,2.87
2018-05-07T21:47:07.976Z,2.77
2018-05-07T21:50:12.736Z,2.87
2018-05-07T21:53:16.020Z,3.00
2018-05-07T21:56:19.226Z,2.90
2018-05-07T21:59:22.493Z,3.13
2018-05-07T22:02:25.703Z,2.80
2018-05-07T22:05:29.001Z,2.80
2018-05-07T22:08:32.207Z,3.00
2018-05-07T22:11:35.495Z,3.13
2018-05-07T22:14:38.793Z,2.93
2018-05-07T22:17:41.997Z,2.90
2018-05-07T22:20:45.456Z,2.50
2018-05-07T22:23:48.670Z,3.10
2018-05-07T22:26:51.924Z,3.10
2018-05-07T22:29:55.191Z,2.70
2018-05-07T22:32:58.410Z,3.10
2018-05-07T22:36:01.694Z,3.07
2018-05-07T22:39:05.065Z,3.00
2018-05-07T22:42:08.334Z,2.87
2018-05-07T22:45:11.632Z,3.37
2018-05-07T22:48:14.845Z,3.20
2018-05-07T22:51:18.119Z,3.07
2018-05-07T22:54:21.331Z,2.97
2018-05-07T22:57:24.602Z,2.73
2018-05-07T23:00:27.808Z,2.87
2018-05-07T23:03:32.201Z,2.90
2018-05-07T23:06:35.481Z,3.27
2018-05-07T23:09:38.677Z,2.90
2018-05-07T23:12:41.964Z,2.50
2018-05-07T23:15:45.163Z,2.80
2018-05-07T23:18:49.248Z,3.50
2018-05-07T23:21:52.533Z,3.20
2018-05-07T23:24:55.750Z,3.10
2018-05-07T23:27:59.013Z,3.17
2018-05-07T23:31:02.316Z,2.80
2018-05-07T23:34:05.525Z,3.17
2018-05-07T23:37:08.823Z,3.10
2018-05-07T23:40:12.850Z,2.67
2018-05-07T23:43:16.121Z,2.77
2018-05-07T23:46:19.473Z,2.67
2018-05-07T23:49:22.689Z,2.80
2018-05-07T23:52:25.981Z,3.23
2018-05-07T23:55:29.183Z,2.60
2018-05-07T23:58:32.461Z,3.20
